Startpagina
METAR-TAF:

METAR-TAF

Vliegvelden :

Roman Tmetuchl International Airport

Koror, Babeldaob, Palau

breedte: 07-22N, lengte: 134-32E, hoogte: 54 m

Actueel weer

Dit bericht is 28 minuten geleden gemaakt, om 22:50 UTC
Wind 10 kt uit het oosten
Temperatuur 30°C
Vochtigheid 79%
Druk 1008 hPa
Zicht: 24.1 km
Verspreide wolken op 1600 ft
Gebroken wolken op 12000 ft
Geheel bewolkt op 30000 ft

METAR: PTRO 262250Z 09010KT 15SM SCT016 BKN120 OVC300 30/26 A2978

Tijdstip: 08:18 (23:18 UTC)

Verwachting

Dit bericht is 5 uur en het 47 minuten geleden gemaakt, om 17:31 UTC
Verwachting geldig van 26 om 18 UTC tot 27 om 18 UTC
Wind 5 kt uit het oostnoordoosten
Zicht: 10 km
Verspreide wolken op 1600 ft
Gebroken wolken op 12000 ft
buien in de omgeving
Tijdelijke
van 26 om 18 UTC tot 26 om 21 UTC
Gebroken wolken op 1600 ft
lichte regenbuien

TAF: PTRO 261731Z 2618/2718 06005KT P6SM VCSH SCT016 BKN120 TEMPO 2618/2621 -SHRA BKN016

Waarnemingen en weersverwachtingen van meer dan 4000 vliegvelden (METAR en TAF).

De beschikbare stations zijn de gele en rode punten op de kaart.

Ga met uw muis naar het station om de naam te zien.

Klik dan om waarnemingen en weersverwachtingen te zien.

kaart wijzigen: klik op de groene knoppen met een zwart kruis om in te zoomen, op de groene knop met een streepje om uit te zoomen of op de groene pijlen voor aangrenzende kaarten.


METAR-TAF: